Thunder radar more information blitzortung!


Radar de pluja more information rain snow radar


Visita la nostra xarxa de llocs de meteo:

Template documentation
and downloads

And another site



No particular awareness of the weather is required.    There are no Weather-warnings

Pagina Historial Weather Underground text

Diari Resum Desembre 24, 2017 Unitats:  Imperial    Mètric   Tant
« Previous Dia
SegĂźent Dia »
Diari Setmana Mensual Anual Personalitzada
  Maxima: Minima: Media:
Temperatura: TemperatureC °F 1.8 °F 7.7 °F
Punt de rosada: DewpointC °F -1.4 °F 1.7 °F
Humitat: Humidity % 58 % 66 %
Wind Speed: WindSpeedKMH mph 0.0 mph 2.6 mph
RĂ fegues de vent: WindSpeedGustKMH mph - -
Vent:- - SE
Pression baro: PressurehPa in 1026.0 in -
Precipitacions: 0.0 in    
Historical Graphs
 
 
Dades de taula per Desembre 24, 2017
Temps Temperatura Punt de rosada Pression baro Vent Wind Speed RĂ fegues de vent Humitat Rainfall Rate (Hourly)
TemperatureC °F DewpointC °F PressurehPa in Calm     Humidity % HourlyPrecipMM in
00:00 4.5 °F 0.4 °F 1033.7 in Calm     75 % 0.0 in
00:04 4.5 °F 0.4 °F 1033.7 in Calm     75 % 0.0 in
00:05 4.5 °F 0.4 °F 1033.7 in Calm     75 % 0.0 in
00:10 4.4 °F 0.2 °F 1033.7 in NNE 2.3 mph 3.2 mph 74 % 0.0 in
00:15 2.3 °F -0.9 °F 1032.1 in NE 3.2 mph 4.8 mph 79 % 0.0 in
00:25 2.3 °F -0.9 °F 1032.1 in North 3.2 mph 8.0 mph 79 % 0.0 in
00:35 2.3 °F -0.9 °F 1032.1 in NNE 4.8 mph 6.4 mph 79 % 0.0 in
00:45 2.2 °F -1.1 °F 1032.1 in NNE 3.2 mph 6.4 mph 79 % 0.0 in
00:55 2.2 °F -1.1 °F 1032.1 in NNW 1.6 mph 9.7 mph 79 % 0.0 in
01:05 1.9 °F -1.3 °F 1032.1 in NW 1.6 mph 3.2 mph 79 % 0.0 in
01:15 2.0 °F -1.3 °F 1032.1 in West 1.6 mph 3.2 mph 79 % 0.0 in
01:25 2.0 °F -1.1 °F 1032.1 in West 1.6 mph 3.2 mph 80 % 0.0 in
01:35 1.9 °F -1.2 °F 1032.1 in WNW 3.2 mph 4.8 mph 80 % 0.0 in
01:45 1.9 °F -1.3 °F 1032.1 in WNW 1.6 mph 3.2 mph 79 % 0.0 in
01:55 1.8 °F -1.4 °F 1032.1 in Calm   3.2 mph 79 % 0.0 in
02:05 1.8 °F -1.4 °F 1032.1 in WNW 3.2 mph 4.8 mph 79 % 0.0 in
02:15 1.8 °F -1.3 °F 1032.1 in WNW 1.6 mph 3.2 mph 80 % 0.0 in
02:25 1.9 °F -1.2 °F 1032.1 in WNW 3.2 mph 6.4 mph 80 % 0.0 in
02:35 1.8 °F -1.3 °F 1032.1 in Calm   9.7 mph 80 % 0.0 in
02:45 2.1 °F -1.0 °F 1032.1 in NNW 1.6 mph 3.2 mph 80 % 0.0 in
03:05 2.5 °F -0.4 °F 1032.1 in North 3.2 mph 4.8 mph 81 % 0.0 in
03:15 2.7 °F -0.4 °F 1032.1 in North 1.6 mph 6.4 mph 80 % 0.0 in
03:25 3.0 °F -0.1 °F 1030.7 in North 1.6 mph 4.8 mph 80 % 0.0 in
03:35 3.2 °F 0.1 °F 1032.1 in NNE 3.2 mph 4.8 mph 80 % 0.0 in
03:45 3.6 °F 0.4 °F 1032.1 in NNE 1.6 mph 6.4 mph 80 % 0.0 in
03:55 4.0 °F 0.8 °F 1032.1 in North 1.6 mph 3.2 mph 80 % 0.0 in
04:05 4.1 °F 0.8 °F 1032.1 in North 3.2 mph 3.2 mph 79 % 0.0 in
04:15 4.4 °F 1.1 °F 1032.1 in NE 3.2 mph 4.8 mph 79 % 0.0 in
04:25 4.7 °F 1.2 °F 1032.1 in NNE 1.6 mph 4.8 mph 78 % 0.0 in
04:35 4.8 °F 1.1 °F 1032.1 in NE 3.2 mph 6.4 mph 77 % 0.0 in
04:45 4.9 °F 1.2 °F 1032.1 in NE 4.8 mph 8.0 mph 77 % 0.0 in
04:55 5.0 °F 1.1 °F 1032.1 in NE 4.8 mph 6.4 mph 76 % 0.0 in
05:05 5.1 °F 1.2 °F 1032.1 in NNE 3.2 mph 11.3 mph 76 % 0.0 in
05:15 5.2 °F 1.1 °F 1032.1 in NNE 4.8 mph 6.4 mph 75 % 0.0 in
11:17 5.5 °F 1.2 °F 1032.1 in ESE 7.4 mph 7.4 mph 74 % 0.0 in
11:18 5.5 °F 1.2 °F 1032.1 in ENE 7.4 mph 7.4 mph 74 % 0.0 in
11:23 5.8 °F 1.5 °F 1032.1 in ENE 3.9 mph 3.9 mph 74 % 0.0 in
11:25 5.9 °F 1.6 °F 1032.1 in NE 5.6 mph 5.6 mph 74 % 0.0 in
11:28 6.0 °F 1.7 °F 1032.1 in NE 7.4 mph 7.4 mph 74 % 0.0 in
11:33 5.9 °F 1.4 °F 1032.1 in NNE 9.3 mph 9.3 mph 73 % 0.0 in
11:35 6.0 °F 1.5 °F 1032.1 in NNE 5.6 mph 5.6 mph 73 % 0.0 in
11:40 6.3 °F 1.8 °F 1032.1 in NNE 7.4 mph 7.4 mph 73 % 0.0 in
11:43 6.5 °F 2.0 °F 1032.1 in ENE 7.4 mph 7.4 mph 73 % 0.0 in
11:46 6.5 °F 1.8 °F 1032.1 in NW 7.4 mph 7.4 mph 72 % 0.0 in
11:50 6.7 °F 2.0 °F 1032.1 in ENE 5.6 mph 6.1 mph 72 % 0.0 in
11:52 6.6 °F 1.9 °F 1032.1 in ENE 5.6 mph 5.6 mph 72 % 0.0 in
11:57 6.8 °F 2.1 °F 1030.7 in North 5.6 mph 5.6 mph 72 % 0.0 in
12:02 6.6 °F 1.5 °F 1030.7 in North 9.3 mph 9.3 mph 70 % 0.0 in
12:06 6.9 °F 1.8 °F 1030.7 in SSE 5.6 mph 5.6 mph 70 % 0.0 in
12:07 7.0 °F 1.9 °F 1030.7 in NE 5.6 mph 5.6 mph 70 % 0.0 in
12:12 7.1 °F 2.0 °F 1032.1 in ENE 9.3 mph 9.3 mph 70 % 0.0 in
12:13 7.1 °F 2.0 °F 1032.1 in ENE 9.3 mph 9.3 mph 70 % 0.0 in
12:18 7.2 °F 2.1 °F 1032.1 in NE 7.4 mph 7.4 mph 70 % 0.0 in
12:23 7.5 °F 2.2 °F 1032.1 in NNE 6.4 mph 6.4 mph 69 % 0.0 in
12:25 7.4 °F 2.1 °F 1030.7 in ENE 7.4 mph 7.4 mph 69 % 0.0 in
12:29 7.5 °F 2.2 °F 1030.7 in NE 3.9 mph 3.9 mph 69 % 0.0 in
12:31 7.5 °F 1.9 °F 1030.7 in ENE 9.3 mph 9.3 mph 68 % 0.0 in
12:36 7.5 °F 1.9 °F 1030.7 in NE 7.4 mph 7.4 mph 68 % 0.0 in
12:38 7.6 °F 2.1 °F 1030.7 in NNE 6.9 mph 6.9 mph 68 % 0.0 in
12:43 7.6 °F 2.1 °F 1032.1 in NE 9.3 mph 9.3 mph 68 % 0.0 in
12:44 7.6 °F 1.8 °F 1032.1 in East 7.6 mph 7.6 mph 67 % 0.0 in
12:48 7.7 °F 1.9 °F 1032.1 in ENE 11.1 mph 11.1 mph 67 % 0.0 in
12:53 8.1 °F 2.3 °F 1032.1 in NNE 5.6 mph 5.6 mph 67 % 0.0 in
12:54 8.1 °F 2.3 °F 1030.7 in NNE 5.6 mph 5.6 mph 67 % 0.0 in
12:55 8.2 °F 2.4 °F 1030.7 in NNE 5.6 mph 5.6 mph 67 % 0.0 in
12:59 8.3 °F 2.5 °F 1030.7 in NW 5.6 mph 5.6 mph 67 % 0.0 in
13:02 8.4 °F 2.6 °F 1030.7 in NNE 7.4 mph 7.4 mph 67 % 0.0 in
13:05 8.5 °F 2.5 °F 1030.7 in East 5.6 mph 5.6 mph 66 % 0.0 in
13:10 8.5 °F 2.3 °F 1030.0 in East 11.1 mph 11.1 mph 65 % 0.0 in
13:11 8.5 °F 2.3 °F 1030.0 in ENE 11.1 mph 11.1 mph 65 % 0.0 in
13:13 8.5 °F 2.3 °F 1030.0 in NE 9.3 mph 9.3 mph 65 % 0.0 in
13:18 8.8 °F 2.6 °F 1030.0 in NNE 7.4 mph 7.4 mph 65 % 0.0 in
13:23 9.0 °F 2.8 °F 1030.0 in NE 5.6 mph 5.6 mph 65 % 0.0 in
13:28 9.2 °F 2.7 °F 1030.0 in ENE 5.6 mph 5.6 mph 64 % 0.0 in
13:29 9.2 °F 2.7 °F 1030.0 in NE 3.7 mph 3.7 mph 64 % 0.0 in
13:34 9.4 °F 2.9 °F 1030.0 in ENE 5.6 mph 5.6 mph 64 % 0.0 in
13:35 9.4 °F 2.9 °F 1030.0 in ENE 4.2 mph 4.2 mph 64 % 0.0 in
13:36 9.4 °F 2.9 °F 1030.0 in ENE 4.2 mph 4.2 mph 64 % 0.0 in
13:41 9.5 °F 2.8 °F 1030.0 in NNE 7.4 mph 7.4 mph 63 % 0.0 in
13:42 9.5 °F 2.8 °F 1030.0 in NNE 5.6 mph 5.6 mph 63 % 0.0 in
13:46 9.5 °F 2.8 °F 1030.0 in NNE 5.6 mph 5.6 mph 63 % 0.0 in
13:47 9.6 °F 2.9 °F 1030.0 in ENE 3.7 mph 3.7 mph 63 % 0.0 in
13:52 9.9 °F 3.2 °F 1030.0 in NE 5.6 mph 5.6 mph 63 % 0.0 in
13:55 9.9 °F 3.2 °F 1030.0 in NNE 4.7 mph 4.7 mph 63 % 0.0 in
14:00 10.0 °F 3.3 °F 1030.0 in NNE 3.7 mph 3.7 mph 63 % 0.0 in
14:01 9.9 °F 2.9 °F 1030.0 in NNE 6.1 mph 6.1 mph 62 % 0.0 in
14:06 10.0 °F 3.1 °F 1030.0 in ENE 3.7 mph 4.7 mph 62 % 0.0 in
14:07 10.1 °F 3.2 °F 1030.0 in East 6.1 mph 6.1 mph 62 % 0.0 in
14:12 10.2 °F 3.2 °F 1030.0 in ENE 6.1 mph 6.1 mph 62 % 0.0 in
14:17 10.3 °F 3.1 °F 1030.0 in ENE 3.7 mph 4.2 mph 61 % 0.0 in
14:19 10.3 °F 3.3 °F 1030.0 in NE 5.6 mph 5.6 mph 62 % 0.0 in
14:20 10.4 °F 3.4 °F 1030.0 in NE 3.7 mph 3.7 mph 62 % 0.0 in
14:24 10.5 °F 3.5 °F 1029.0 in NW 3.7 mph 3.7 mph 62 % 0.0 in
14:29 10.6 °F 3.6 °F 1029.0 in ENE 3.9 mph 3.9 mph 62 % 0.0 in
14:34 10.8 °F 3.6 °F 1029.0 in NE 3.7 mph 3.7 mph 61 % 0.0 in
14:35 10.8 °F 3.6 °F 1029.0 in NE 2.3 mph 2.3 mph 61 % 0.0 in
14:38 10.9 °F 3.7 °F 1029.0 in ENE 1.9 mph 2.6 mph 61 % 0.0 in
14:40 11.0 °F 3.8 °F 1029.0 in NE 2.3 mph 2.6 mph 61 % 0.0 in
14:41 11.0 °F 3.8 °F 1029.0 in ENE 3.7 mph 3.7 mph 61 % 0.0 in
14:43 11.0 °F 3.8 °F 1029.0 in NE 3.7 mph 3.7 mph 61 % 0.0 in
14:47 11.1 °F 3.8 °F 1029.0 in East 4.2 mph 4.2 mph 61 % 0.0 in
14:50 11.2 °F 3.7 °F 1029.0 in ENE 3.7 mph 3.7 mph 60 % 0.0 in
14:53 11.2 °F 3.7 °F 1029.0 in NNE 4.7 mph 4.7 mph 60 % 0.0 in
14:58 11.4 °F 3.9 °F 1028.0 in East 5.0 mph 5.0 mph 60 % 0.0 in
14:59 11.4 °F 3.9 °F 1028.0 in East 3.9 mph 4.2 mph 60 % 0.0 in
15:04 11.5 °F 4.0 °F 1028.0 in NNE 3.7 mph 3.7 mph 60 % 0.0 in
15:06 11.5 °F 4.0 °F 1028.0 in NNE 3.7 mph 3.7 mph 60 % 0.0 in
15:11 11.6 °F 4.1 °F 1028.0 in NE 1.9 mph 1.9 mph 60 % 0.0 in
15:12 11.6 °F 4.1 °F 1028.0 in NE 1.9 mph 1.9 mph 60 % 0.0 in
15:17 11.7 °F 4.2 °F 1028.0 in NE 1.9 mph 1.9 mph 60 % 0.0 in
15:20 11.7 °F 4.2 °F 1028.0 in ENE 3.7 mph 3.7 mph 60 % 0.0 in
15:24 11.8 °F 4.3 °F 1028.0 in NNE 3.9 mph 3.9 mph 60 % 0.0 in
15:29 11.9 °F 4.4 °F 1028.0 in NNE 3.9 mph 3.9 mph 60 % 0.0 in
15:30 11.9 °F 4.4 °F 1028.0 in NNE 3.9 mph 3.9 mph 60 % 0.0 in
15:35 12.0 °F 4.2 °F 1028.0 in NE 3.7 mph 3.7 mph 59 % 0.0 in
15:40 12.0 °F 4.2 °F 1028.0 in NNE 3.9 mph 3.9 mph 59 % 0.0 in
15:41 12.0 °F 4.2 °F 1028.0 in NE 3.7 mph 3.7 mph 59 % 0.0 in
15:46 12.1 °F 4.3 °F 1028.0 in NE 3.7 mph 3.7 mph 59 % 0.0 in
15:47 12.0 °F 4.2 °F 1028.0 in NNE 4.2 mph 4.2 mph 59 % 0.0 in
15:52 12.0 °F 4.2 °F 1028.0 in NE 3.7 mph 3.7 mph 59 % 0.0 in
15:53 12.0 °F 4.2 °F 1028.0 in NE 3.7 mph 3.7 mph 59 % 0.0 in
15:54 12.0 °F 4.2 °F 1028.0 in NE 1.9 mph   59 % 0.0 in
15:58 12.0 °F 4.2 °F 1028.0 in NE 1.9 mph   59 % 0.0 in
16:03 11.9 °F 4.1 °F 1028.0 in NE 1.9 mph 1.9 mph 59 % 0.0 in
16:04 11.9 °F 4.1 °F 1028.0 in NE 1.9 mph 1.9 mph 59 % 0.0 in
16:09 11.9 °F 4.1 °F 1028.0 in North 3.7 mph 3.7 mph 59 % 0.0 in
16:10 11.9 °F 4.1 °F 1028.0 in NNW 3.7 mph 3.7 mph 59 % 0.0 in
16:12 11.8 °F 4.1 °F 1028.0 in NNE 3.2 mph 3.2 mph 59 % 0.0 in
16:17 11.8 °F 4.1 °F 1028.0 in North 1.9 mph 1.9 mph 59 % 0.0 in
16:18 11.8 °F 4.1 °F 1028.0 in North 1.9 mph   59 % 0.0 in
16:23 11.7 °F 3.9 °F 1028.0 in NNE 2.6 mph 2.6 mph 59 % 0.0 in
16:24 11.7 °F 3.9 °F 1028.0 in NE 1.9 mph 2.3 mph 59 % 0.0 in
16:29 11.6 °F 3.6 °F 1028.0 in North 1.9 mph 2.3 mph 58 % 0.0 in
16:32 11.7 °F 3.7 °F 1028.0 in North 3.7 mph 3.7 mph 58 % 0.0 in
16:37 11.7 °F 3.9 °F 1028.0 in Calm     59 % 0.0 in
16:38 11.7 °F 3.9 °F 1028.0 in Calm     59 % 0.0 in
16:43 11.6 °F 3.8 °F 1028.0 in NNE 1.9 mph 1.9 mph 59 % 0.0 in
16:44 11.6 °F 3.6 °F 1028.0 in NNE 1.9 mph 1.9 mph 58 % 0.0 in
16:45 11.6 °F 3.8 °F 1028.0 in NNW 1.9 mph   59 % 0.0 in
16:50 11.6 °F 3.8 °F 1028.0 in NW 1.9 mph   59 % 0.0 in
16:53 11.6 °F 3.8 °F 1028.0 in NW 1.9 mph   59 % 0.0 in
16:55 11.7 °F 3.9 °F 1028.0 in NNW 2.6 mph 2.6 mph 59 % 0.0 in
17:00 11.7 °F 3.9 °F 1028.0 in NW 3.7 mph 3.7 mph 59 % 0.0 in
17:05 11.5 °F 3.8 °F 1028.0 in NW 1.9 mph 1.9 mph 59 % 0.0 in
17:06 11.5 °F 3.8 °F 1028.0 in WNW 1.9 mph 1.9 mph 59 % 0.0 in
17:11 11.4 °F 3.7 °F 1028.0 in NW 1.9 mph 1.9 mph 59 % 0.0 in
17:12 11.4 °F 3.7 °F 1028.0 in NW 1.9 mph 1.9 mph 59 % 0.0 in
17:15 11.4 °F 3.4 °F 1028.0 in NW 1.9 mph   58 % 0.0 in
17:17 11.3 °F 3.3 °F 1028.0 in WNW 1.9 mph   58 % 0.0 in
17:22 11.1 °F 3.2 °F 1028.0 in Calm     58 % 0.0 in
17:27 10.9 °F 2.9 °F 1028.0 in WNW 1.9 mph   58 % 0.0 in
17:28 10.9 °F 2.9 °F 1028.0 in ENE 1.9 mph   58 % 0.0 in
17:33 10.8 °F 2.8 °F 1028.0 in NE 1.9 mph   58 % 0.0 in
17:35 10.7 °F 2.8 °F 1028.0 in Calm     58 % 0.0 in
17:39 10.6 °F 2.7 °F 1028.0 in NE 1.9 mph   58 % 0.0 in
17:44 10.5 °F 2.6 °F 1028.0 in Calm     58 % 0.0 in
17:46 10.5 °F 2.6 °F 1028.0 in Calm     58 % 0.0 in
17:51 10.4 °F 2.5 °F 1028.0 in Calm     58 % 0.0 in
17:52 10.4 °F 2.5 °F 1028.0 in Calm     58 % 0.0 in
17:56 10.3 °F 2.6 °F 1028.0 in Calm     59 % 0.0 in
17:59 10.2 °F 2.6 °F 1028.0 in NW 2.3 mph   59 % 0.0 in
18:00 10.1 °F 2.4 °F 1028.0 in NW 2.6 mph 2.6 mph 59 % 0.0 in
18:04 9.9 °F 2.3 °F 1028.0 in WNW 2.3 mph 2.3 mph 59 % 0.0 in
18:06 9.8 °F 2.2 °F 1028.0 in West 3.9 mph 3.9 mph 59 % 0.0 in
18:10 9.7 °F 2.3 °F 1028.0 in West 2.3 mph 2.3 mph 60 % 0.0 in
18:11 9.7 °F 2.3 °F 1028.0 in West 1.9 mph 1.9 mph 60 % 0.0 in
18:16 9.5 °F 2.1 °F 1028.0 in Calm     60 % 0.0 in
18:21 9.3 °F 1.9 °F 1028.0 in NNE 2.6 mph 2.6 mph 60 % 0.0 in
18:24 9.4 °F 2.3 °F 1028.0 in NNE 2.3 mph 2.3 mph 61 % 0.0 in
18:27 9.5 °F 2.3 °F 1028.0 in NNE 1.9 mph 1.9 mph 61 % 0.0 in
18:31 9.6 °F 2.4 °F 1028.0 in WSW 1.9 mph 1.9 mph 61 % 0.0 in
18:33 9.6 °F 2.4 °F 1028.0 in Calm     61 % 0.0 in
18:38 9.6 °F 2.4 °F 1028.0 in Calm     61 % 0.0 in
18:43 9.4 °F 2.3 °F 1027.0 in ESE 2.3 mph 2.3 mph 61 % 0.0 in
18:45 9.3 °F 2.2 °F 1027.0 in NE 2.3 mph 2.3 mph 61 % 0.0 in
18:46 9.3 °F 2.2 °F 1027.0 in NE 1.9 mph 1.9 mph 61 % 0.0 in
18:50 9.2 °F 2.1 °F 1027.0 in Calm     61 % 0.0 in
18:55 9.1 °F 1.9 °F 1028.0 in Calm     61 % 0.0 in
18:56 9.1 °F 1.9 °F 1028.0 in Calm     61 % 0.0 in
18:58 9.0 °F 1.9 °F 1028.0 in Calm     61 % 0.0 in
19:01 8.9 °F 1.8 °F 1028.0 in NNE 2.3 mph 2.3 mph 61 % 0.0 in
19:04 8.9 °F 1.8 °F 1028.0 in NNE 2.3 mph 2.3 mph 61 % 0.0 in
19:05 4.4 °F 0.2 °F 1028.0 in NE 1.6 mph   74 % 0.0 in
19:08 9.0 °F 1.9 °F 1028.0 in ENE 2.3 mph 2.3 mph 61 % 0.0 in
19:09 9.0 °F 1.9 °F 1028.0 in ENE 1.9 mph 1.9 mph 61 % 0.0 in
19:10 8.9 °F 1.8 °F 1028.0 in ENE 1.9 mph   61 % 0.0 in
19:13 8.9 °F 1.8 °F 1028.0 in Calm     61 % 0.0 in
19:15 4.2 °F -0.2 °F 1028.0 in Calm     73 % 0.0 in
19:18 8.9 °F 2.0 °F 1028.0 in Calm     62 % 0.0 in
19:21 8.8 °F 1.9 °F 1028.0 in Calm     62 % 0.0 in
19:25 8.8 °F 1.9 °F 1028.0 in NE 1.9 mph   62 % 0.0 in
19:29 8.7 °F 1.8 °F 1028.0 in South 1.9 mph 2.3 mph 62 % 0.0 in
19:30 8.7 °F 1.8 °F 1028.0 in South 1.9 mph 2.3 mph 62 % 0.0 in
19:34 8.5 °F 1.6 °F 1028.0 in Calm     62 % 0.0 in
19:35 4.0 °F -0.2 °F 1028.0 in Calm   1.6 mph 74 % 0.0 in
19:36 8.5 °F 1.6 °F 1028.0 in South 1.9 mph 1.9 mph 62 % 0.0 in
19:37 8.5 °F 1.6 °F 1028.0 in Calm     62 % 0.0 in
19:42 8.4 °F 1.6 °F 1028.0 in Calm     62 % 0.0 in
19:43 8.4 °F 1.6 °F 1028.0 in Calm     62 % 0.0 in
19:45 3.8 °F -0.4 °F 1028.0 in Calm     74 % 0.0 in
19:48 8.3 °F 1.4 °F 1028.0 in Calm     62 % 0.0 in
19:52 8.1 °F 1.5 °F 1028.0 in Calm     63 % 0.0 in
19:54 8.1 °F 1.5 °F 1028.0 in Calm     63 % 0.0 in
19:55 3.7 °F -0.5 °F 1028.0 in Calm     74 % 0.0 in
19:58 8.1 °F 1.5 °F 1028.0 in Calm     63 % 0.0 in
20:00 8.1 °F 1.5 °F 1028.0 in Calm     63 % 0.0 in
20:01 8.1 °F 1.5 °F 1028.0 in Calm     63 % 0.0 in
20:05 8.0 °F 1.4 °F 1028.0 in Calm     63 % 0.0 in
20:10 8.0 °F 1.4 °F 1028.0 in Calm     63 % 0.0 in
20:12 8.0 °F 1.4 °F 1028.0 in Calm     63 % 0.0 in
20:15 3.5 °F -0.7 °F 1028.0 in NNE 1.6 mph 3.2 mph 74 % 0.0 in
20:17 7.9 °F 1.3 °F 1028.0 in Calm     63 % 0.0 in
20:20 7.8 °F 1.2 °F 1028.0 in Calm     63 % 0.0 in
20:24 7.8 °F 1.2 °F 1028.0 in Calm     63 % 0.0 in
20:25 7.8 °F 1.2 °F 1028.0 in Calm     63 % 0.0 in
20:29 7.7 °F 1.1 °F 1028.0 in SW 1.9 mph 1.9 mph 63 % 0.0 in
20:32 7.7 °F 1.1 °F 1028.0 in SW 2.6 mph 2.6 mph 63 % 0.0 in
20:35 3.5 °F -0.5 °F 1028.0 in Calm     75 % 0.0 in
20:37 7.7 °F 1.3 °F 1028.0 in SW 1.9 mph 1.9 mph 64 % 0.0 in
20:38 7.7 °F 1.3 °F 1028.0 in SW 2.3 mph 2.3 mph 64 % 0.0 in
20:42 7.6 °F 1.2 °F 1028.0 in SW 3.7 mph 3.7 mph 64 % 0.0 in
20:45 3.4 °F -0.6 °F 1028.0 in Calm     75 % 0.0 in
20:47 7.4 °F 1.1 °F 1028.0 in SW 1.9 mph 1.9 mph 64 % 0.0 in
20:55 3.3 °F -0.7 °F 1027.0 in North 1.6 mph 3.2 mph 75 % 0.0 in
20:57 7.4 °F 1.1 °F 1028.0 in WSW 3.7 mph 3.7 mph 64 % 0.0 in
20:58 7.4 °F 1.1 °F 1028.0 in WSW 3.7 mph 3.7 mph 64 % 0.0 in
21:02 7.3 °F 1.2 °F 1028.0 in WSW 1.9 mph 1.9 mph 65 % 0.0 in
21:05 3.3 °F -0.6 °F 1027.0 in Calm   1.6 mph 76 % 0.0 in
21:07 7.3 °F 1.2 °F 1028.0 in WSW 3.7 mph 3.7 mph 65 % 0.0 in
21:08 7.3 °F 1.2 °F 1028.0 in WSW 3.7 mph 3.7 mph 65 % 0.0 in
21:10 7.3 °F 1.2 °F 1028.0 in WSW 2.6 mph 2.6 mph 65 % 0.0 in
21:13 7.3 °F 1.4 °F 1028.0 in WSW 1.9 mph 2.3 mph 66 % 0.0 in
21:16 7.2 °F 1.3 °F 1028.0 in WSW 1.9 mph   66 % 0.0 in
21:19 7.1 °F 1.2 °F 1028.0 in WSW 3.7 mph 3.7 mph 66 % 0.0 in
21:24 7.0 °F 1.1 °F 1028.0 in WSW 2.3 mph 2.3 mph 66 % 0.0 in
21:25 7.0 °F 1.1 °F 1028.0 in WSW 2.3 mph 2.3 mph 66 % 0.0 in
21:30 6.9 °F 1.2 °F 1028.0 in Calm     67 % 0.0 in
21:31 6.9 °F 1.2 °F 1028.0 in Calm     67 % 0.0 in
21:32 6.9 °F 1.2 °F 1028.0 in Calm     67 % 0.0 in
21:33 6.8 °F 1.1 °F 1028.0 in Calm     67 % 0.0 in
21:35 3.2 °F -0.6 °F 1027.0 in Calm     76 % 0.0 in
21:38 6.7 °F 1.2 °F 1028.0 in WNW 1.9 mph   68 % 0.0 in
21:39 6.7 °F 1.2 °F 1028.0 in WNW 1.9 mph   68 % 0.0 in
21:40 6.6 °F 0.9 °F 1028.0 in North 2.3 mph 2.3 mph 67 % 0.0 in
21:45 6.5 °F 0.8 °F 1028.0 in Calm     67 % 0.0 in
21:49 6.3 °F 0.6 °F 1028.0 in Calm     67 % 0.0 in
21:52 6.2 °F 0.5 °F 1028.0 in NNE 1.9 mph 1.9 mph 67 % 0.0 in
21:54 6.2 °F 0.5 °F 1027.0 in NNE 1.9 mph   67 % 0.0 in
21:59 6.1 °F 0.6 °F 1027.0 in NNE 1.9 mph   68 % 0.0 in
22:00 6.1 °F 0.6 °F 1027.0 in Calm     68 % 0.0 in
22:05 6.1 °F 0.6 °F 1027.0 in NW 2.3 mph 2.3 mph 68 % 0.0 in
22:10 6.0 °F 0.3 °F 1028.0 in NW 1.9 mph   67 % 0.0 in
22:13 6.0 °F 0.6 °F 1028.0 in NW 1.9 mph   68 % 0.0 in
22:15 2.9 °F -0.9 °F 1027.0 in NNE 1.6 mph 1.6 mph 76 % 0.0 in
22:18 6.0 °F 0.6 °F 1028.0 in Calm     68 % 0.0 in
22:19 6.0 °F 0.3 °F 1028.0 in WNW 1.9 mph 1.9 mph 67 % 0.0 in
22:24 6.0 °F 0.6 °F 1028.0 in Calm     68 % 0.0 in
22:25 6.0 °F 0.6 °F 1028.0 in Calm     68 % 0.0 in
22:30 5.9 °F 0.4 °F 1028.0 in Calm     68 % 0.0 in
22:31 5.9 °F 0.4 °F 1028.0 in Calm     68 % 0.0 in
22:35 2.8 °F -1.0 °F 1026.0 in Calm   1.6 mph 76 % 0.0 in
22:36 5.8 °F 0.3 °F 1028.0 in Calm     68 % 0.0 in
22:41 5.6 °F 0.2 °F 1028.0 in Calm     68 % 0.0 in
22:44 5.6 °F 0.2 °F 1028.0 in WSW 3.7 mph 3.7 mph 68 % 0.0 in
22:45 2.7 °F -1.1 °F 1026.0 in Calm     76 % 0.0 in
22:49 5.6 °F 0.2 °F 1028.0 in WSW 3.7 mph 3.7 mph 68 % 0.0 in
22:54 5.5 °F 0.3 °F 1028.0 in WSW 3.7 mph 3.7 mph 69 % 0.0 in
22:55 2.6 °F -1.2 °F 1026.0 in Calm   3.2 mph 76 % 0.0 in
22:56 5.5 °F 0.3 °F 1028.0 in WSW 1.9 mph 1.9 mph 69 % 0.0 in
23:00 5.5 °F 0.3 °F 1028.0 in Calm   1.6 mph 69 % 0.0 in
23:01 5.4 °F 0.2 °F 1028.0 in Calm     69 % 0.0 in
23:05 2.8 °F -1.0 °F 1026.0 in West 1.6 mph 4.8 mph 76 % 0.0 in
23:06 5.4 °F 0.2 °F 1028.0 in NNW 1.9 mph   69 % 0.0 in
23:10 5.4 °F 0.4 °F 1028.0 in Calm     70 % 0.0 in
23:13 5.5 °F 0.4 °F 1028.0 in Calm     70 % 0.0 in
23:15 5.5 °F 0.4 °F 1028.0 in Calm     70 % 0.0 in
23:20 5.4 °F 0.4 °F 1028.0 in Calm     70 % 0.0 in
23:23 5.4 °F 0.6 °F 1028.0 in Calm     71 % 0.0 in
23:25 2.9 °F -0.7 °F 1026.0 in Calm     77 % 0.0 in
23:28 5.3 °F 0.4 °F 1028.0 in Calm     71 % 0.0 in
23:33 5.2 °F 0.4 °F 1028.0 in Calm     71 % 0.0 in
23:34 5.2 °F 0.4 °F 1028.0 in Calm     71 % 0.0 in
23:35 5.2 °F 0.4 °F 1028.0 in Calm     71 % 0.0 in
23:40 5.2 °F 0.6 °F 1028.0 in Calm     72 % 0.0 in
23:45 5.1 °F 0.4 °F 1028.0 in Calm     72 % 0.0 in
23:47 5.1 °F 0.4 °F 1028.0 in Calm     72 % 0.0 in
23:48 5.1 °F 0.4 °F 1028.0 in NW 1.9 mph   72 % 0.0 in
23:52 5.1 °F 0.4 °F 1028.0 in Calm     72 % 0.0 in
23:55 3.2 °F -0.4 °F 1026.0 in Calm   1.6 mph 77 % 0.0 in
23:57 5.0 °F 0.2 °F 1028.0 in WNW 3.7 mph 3.7 mph 71 % 0.0 in
23:59 5.0 °F 0.2 °F 1028.0 in West 3.7 mph 3.7 mph 71 % 0.0 in
Meteo Sesrovires
Elogis d' Weather Underground - 4 mb

Guio original per  Jim McMurry - jmcmurry@mwt.net Adaptat per a la plantilla per  Wim van der Kuil - Leuven-Template.eu

Trobareu la nostra informacio del temps tambe a:

Weather Underground

AWEKAS